Del Norte, CO (81132)

4:35 AM MST on November 28, 2014 (GMT -0700)
KCOSOUTH6 | Change Station
CLOSE
Current Station
Personal Weather Station
Location: South Fork, CO
Elevation: 8225 ft
Nearby Weather Stations

Elev 8225 ft 37.67 °N, 106.64 °W | Updated 47 seconds ago

Clear
Clear
22.9 °F
Feels Like 15 °F
N
6.1
Wind Variable Wind from SW
Gusts 10.0 mph

Today
High -- | Low -- °F
--% Chance of Precip.
Yesterday
High -- | Low -- °F
Precip. -- in
6:58 AM 4:48 PM
Waxing Crescent, 39% visible
Pressure 30.32 in
Visibility 10.0 miles
Clouds Clear
Windchill 15 °F
Dew Point 11 °F
Humidity 61%
Rainfall 0.00 in
Snow Depth Not available.
UV 0 out of 12
Pollen .10 out of 12
Air Quality Not available.
Flu Activity Not available.
METAR KALS 281052Z AUTO 00000KT 10SM CLR M13/M15 A3028 RMK AO2 SLP265 T11281150

More Conditions Fewer Conditions

Pressure 30.32 in
Visibility 10.0 miles
Clouds Clear
Windchill 15 °F
Dew Point 11 °F
Humidity 61%
Rainfall 0.00 in
Snow Depth Not available.
UV 0 out of 12
Pollen .10 out of 12
Air Quality Not available.
Flu Activity Not available.
METAR KALS 281052Z AUTO 00000KT 10SM CLR M13/M15 A3028 RMK AO2 SLP265 T11281150

More Conditions Fewer Conditions

10-Day Weather Forecast

Almanac

Astronomy

Nov. 28, 2014 Rise Set
Actual Time
Civil Twilight
Nautical Twilight
Astronomical Twilight
Moon
Length of Visible Light
Length of Day
Tomorrow will be .
, % of the Moon is Illuminated

Today's Extremes

State Highs State Lows

Community

WunderPhotos

Upload Photos

1,774,192 photos uploaded!

WunderBlogs® & News

Nearby

Air Quality

  Air Quality AQ Index Pollutant
Not available.

Snow Depth

Station Depth Elevation

Earthquake Activity

City Distance Mag. Time & Date
Minimum magnitude displayed is 2.5.

Coastal Water Temperatures

Place Temperature

Nearby Weather Stations